Tuapse, Russia
Current Conditions -  °F | °C
As of 3:00 PM on Friday 31 Oct 2014 (Local Time) from URSS Reporting Station
Overcast Overcast  
Wind Chill: 64°   Ceiling: 11000
Heat Index: 64°   Visibility: 6mi
Dew Point: 50°   Wind: 2mph
Humidity: 59%   Direction: 180°S
Pressure: 29.83"   Gusts: NA
Location:  44.11°N, 39.07°E
Report Text: URSS 311200Z 18001MPS 9999 OVC110 18/10 Q1010 NOSIG RMKR02/23001MPS QFE756 06000070 02000070
Loading
Personal Weather Stations






























Interactive Weather Map
Tropical Storm Tracking
New forecast layout! Learn more

10-Day Weather Forecast

Advertisements
Track Severe Weather on mobile